Time;durP1;ratioP1;P1;durP2;ratioP2;P2;SDS_P1;SDS_P2;PMS_P1;PMS_P2;Temp;Humidity;BMP_temperature;BMP_pressure;BME280_temperature;BME280_humidity;BME280_pressure;Samples;Min_cycle;Max_cycle;Signal;HPM_P1;HPM_P2
2023/06/02 00:02:05;;;;;;;8.90;3.50;;;16.60;92.70;;;;;;4975646;28;20470;-76
2023/06/02 00:04:37;;;;;;;11.57;3.90;;;16.60;92.90;;;;;;4974502;28;20537;-76
2023/06/02 00:07:04;;;;;;;8.57;4.27;;;16.50;92.90;;;;;;4990590;28;20817;-75
2023/06/02 00:09:32;;;;;;;14.27;5.57;;;16.50;93.10;;;;;;4994213;28;20477;-77
2023/06/02 00:11:59;;;;;;;14.80;4.57;;;16.40;93.10;;;;;;4993529;28;20512;-77
2023/06/02 00:14:26;;;;;;;8.73;3.80;;;16.40;93.20;;;;;;5013203;28;20469;-76
2023/06/02 00:16:55;;;;;;;8.70;3.63;;;16.40;93.40;;;;;;5012684;28;20990;-77
2023/06/02 00:19:25;;;;;;;11.13;3.80;;;16.30;93.40;;;;;;5013373;28;20545;-77
2023/06/02 00:21:53;;;;;;;8.40;3.83;;;16.30;93.50;;;;;;5013283;28;20473;-77
2023/06/02 00:24:20;;;;;;;15.00;5.00;;;16.30;93.70;;;;;;5013487;28;20786;-76
2023/06/02 00:26:50;;;;;;;17.27;4.53;;;16.30;93.80;;;;;;5012255;28;20473;-77
2023/06/02 00:29:17;;;;;;;9.90;4.00;;;16.20;93.80;;;;;;5013447;28;20473;-76
2023/06/02 00:31:44;;;;;;;7.80;3.77;;;16.20;94.00;;;;;;5012272;28;20839;-76
2023/06/02 00:34:12;;;;;;;11.47;3.70;;;16.20;94.10;;;;;;5012606;28;20467;-76
2023/06/02 00:36:40;;;;;;;8.07;4.37;;;16.10;94.10;;;;;;5013321;28;20472;-74
2023/06/02 00:39:08;;;;;;;8.23;4.47;;;16.10;94.20;;;;;;5012795;28;20540;-76
2023/06/02 00:41:35;;;;;;;9.23;4.13;;;16.10;94.40;;;;;;5012984;28;20835;-75
2023/06/02 00:44:02;;;;;;;8.63;3.90;;;16.10;94.50;;;;;;5012601;28;20503;-75
2023/06/02 00:46:29;;;;;;;8.50;4.30;;;16.00;94.60;;;;;;5013121;28;20508;-75
2023/06/02 00:48:56;;;;;;;10.33;4.43;;;16.00;94.80;;;;;;5012636;28;20469;-74
2023/06/02 00:51:52;;;;;;;11.63;4.60;;;16.00;94.90;;;;;;5013148;28;20472;-77
2023/06/02 00:54:19;;;;;;;8.93;4.63;;;15.90;95.10;;;;;;5012445;28;20542;-76
2023/06/02 00:56:46;;;;;;;6.03;3.63;;;15.90;95.20;;;;;;5012856;28;20480;-77
2023/06/02 00:59:14;;;;;;;6.20;4.10;;;15.90;95.40;;;;;;5012670;28;20497;-76
2023/06/02 01:01:42;;;;;;;8.63;4.50;;;15.80;95.50;;;;;;5013023;28;20814;-74
2023/06/02 01:04:09;;;;;;;8.70;4.60;;;15.80;95.70;;;;;;5012259;28;20527;-77
2023/06/02 01:06:38;;;;;;;10.10;4.60;;;15.80;95.90;;;;;;4999469;28;20478;-77
2023/06/02 01:09:10;;;;;;;9.57;4.30;;;15.80;95.90;;;;;;4992546;28;20474;-76
2023/06/02 01:11:37;;;;;;;10.20;4.10;;;15.70;96.00;;;;;;4993402;28;20504;-76
2023/06/02 01:14:04;;;;;;;7.50;3.80;;;15.70;96.10;;;;;;4992628;28;20470;-76
2023/06/02 01:16:32;;;;;;;9.00;6.43;;;15.70;96.30;;;;;;4993162;28;20528;-76
2023/06/02 01:19:00;;;;;;;7.43;4.23;;;15.60;96.50;;;;;;4992009;28;20524;-76
2023/06/02 01:21:34;;;;;;;15.73;5.47;;;15.60;96.60;;;;;;4992513;28;20461;-76
2023/06/02 01:24:03;;;;;;;6.67;4.30;;;15.60;96.90;;;;;;4992725;28;20473;-76
2023/06/02 01:26:35;;;;;;;7.80;4.53;;;15.60;97.00;;;;;;4993047;28;20863;-77
2023/06/02 01:29:02;;;;;;;6.60;4.70;;;15.50;97.00;;;;;;4991437;28;20476;-75
2023/06/02 01:31:35;;;;;;;10.40;4.10;;;15.50;97.00;;;;;;4993130;28;20549;-75
2023/06/02 01:34:09;;;;;;;8.53;3.70;;;15.50;97.20;;;;;;4992450;28;20470;-76
2023/06/02 01:36:40;;;;;;;7.93;4.13;;;15.40;97.30;;;;;;4992689;28;20917;-76
2023/06/02 01:39:10;;;;;;;7.40;3.80;;;15.40;97.40;;;;;;4982357;28;20970;-76
2023/06/02 01:41:43;;;;;;;7.97;4.33;;;15.40;97.40;;;;;;4992002;28;20876;-76
2023/06/02 01:44:12;;;;;;;9.33;4.90;;;15.40;97.60;;;;;;4991260;28;20454;-76
2023/06/02 01:46:40;;;;;;;11.13;3.90;;;15.30;97.60;;;;;;4992899;28;20481;-76
2023/06/02 01:49:14;;;;;;;8.10;3.57;;;15.30;97.60;;;;;;4992278;28;20540;-75
2023/06/02 01:51:53;;;;;;;7.03;4.13;;;15.20;97.70;;;;;;4993126;28;20864;-76
2023/06/02 01:54:22;;;;;;;13.73;5.30;;;15.20;98.00;;;;;;4972476;28;20469;-75
2023/06/02 01:56:49;;;;;;;14.37;4.57;;;15.10;98.00;;;;;;5009022;28;20469;-75
2023/06/02 01:59:17;;;;;;;6.13;4.07;;;15.10;98.20;;;;;;5012428;28;20477;-76
2023/06/02 02:01:44;;;;;;;9.90;3.47;;;15.10;98.30;;;;;;5016456;28;20465;-76
2023/06/02 02:04:12;;;;;;;10.83;4.67;;;15.00;98.40;;;;;;5015148;28;20541;-76
2023/06/02 02:06:39;;;;;;;10.00;4.00;;;15.00;98.50;;;;;;5002740;28;20478;-76
2023/06/02 02:09:07;;;;;;;9.43;4.47;;;15.00;98.60;;;;;;4995519;28;20466;-75
2023/06/02 02:11:36;;;;;;;13.70;4.57;;;14.90;98.70;;;;;;4997465;28;20474;-75
2023/06/02 02:14:04;;;;;;;14.30;4.63;;;14.90;98.80;;;;;;4995810;28;20524;-76
2023/06/02 02:16:31;;;;;;;7.87;4.00;;;14.80;98.90;;;;;;4996547;28;20469;-75
2023/06/02 02:18:58;;;;;;;17.70;5.20;;;14.80;99.00;;;;;;4996587;28;21034;-74
2023/06/02 02:21:25;;;;;;;10.60;4.27;;;14.80;99.10;;;;;;4995762;28;20947;-76
2023/06/02 02:23:53;;;;;;;13.53;5.30;;;14.70;99.10;;;;;;4996172;28;20474;-76
2023/06/02 02:26:23;;;;;;;11.07;4.13;;;14.70;99.30;;;;;;4995799;28;20473;-76
2023/06/02 02:28:51;;;;;;;14.82;4.30;;;14.70;99.40;;;;;;4985995;28;20477;-76
2023/06/02 02:31:18;;;;;;;10.27;4.23;;;14.60;99.40;;;;;;4995088;28;20230;-76
2023/06/02 02:33:45;;;;;;;32.90;18.52;;;14.60;99.50;;;;;;4995916;28;20536;-76
2023/06/02 02:36:13;;;;;;;13.43;6.07;;;14.50;99.60;;;;;;4994133;28;20234;-76
2023/06/02 02:38:40;;;;;;;12.60;4.33;;;14.50;99.80;;;;;;4995616;28;20474;-76
2023/06/02 02:41:07;;;;;;;6.90;3.43;;;14.50;99.70;;;;;;4995420;28;20481;-76
2023/06/02 02:43:34;;;;;;;10.80;4.07;;;14.40;99.90;;;;;;4995294;28;20466;-76
2023/06/02 02:46:02;;;;;;;6.60;3.90;;;14.40;99.90;;;;;;4995756;28;20802;-76
2023/06/02 02:48:29;;;;;;;8.23;4.10;;;14.30;99.80;;;;;;4995199;28;20480;-75
2023/06/02 02:50:56;;;;;;;6.23;3.63;;;14.30;99.90;;;;;;4995693;28;20501;-76
2023/06/02 02:53:24;;;;;;;7.25;3.67;;;14.30;99.90;;;;;;4994818;28;20980;-76
2023/06/02 02:55:51;;;;;;;11.98;4.30;;;14.30;99.90;;;;;;5004357;28;20226;-76
2023/06/02 02:58:19;;;;;;;8.45;4.07;;;14.30;99.90;;;;;;5014444;28;20236;-76
2023/06/02 03:00:47;;;;;;;8.25;4.15;;;14.30;99.90;;;;;;5015199;28;20224;-76
2023/06/02 03:03:15;;;;;;;7.95;3.22;;;14.20;99.90;;;;;;5014276;28;20679;-76
2023/06/02 03:05:45;;;;;;;9.70;4.03;;;14.20;99.90;;;;;;5014773;28;20230;-76
2023/06/02 03:08:12;;;;;;;9.20;3.70;;;14.20;99.90;;;;;;5014601;28;20470;-76
2023/06/02 03:10:39;;;;;;;13.30;4.70;;;14.20;99.90;;;;;;5013605;28;20473;-76
2023/06/02 03:13:06;;;;;;;14.73;4.57;;;14.20;99.90;;;;;;5014844;28;20869;-76
2023/06/02 03:15:34;;;;;;;10.25;3.95;;;14.20;99.90;;;;;;5014122;28;20226;-75
2023/06/02 03:18:03;;;;;;;6.80;3.97;;;14.20;99.90;;;;;;5014393;28;20241;-76
2023/06/02 03:20:31;;;;;;;11.70;4.90;;;14.20;99.90;;;;;;5002830;28;20225;-77
2023/06/02 03:22:58;;;;;;;6.65;5.10;;;14.20;99.90;;;;;;5014004;28;20225;-76
2023/06/02 03:25:25;;;;;;;6.90;4.00;;;14.20;99.90;;;;;;5013843;28;20668;-76
2023/06/02 03:27:52;;;;;;;9.25;4.25;;;14.20;99.90;;;;;;5014556;28;20296;-76
2023/06/02 03:30:20;;;;;;;12.38;4.45;;;14.20;99.90;;;;;;5003643;28;20684;-76
2023/06/02 03:32:47;;;;;;;9.73;3.95;;;14.20;99.90;;;;;;5013813;28;20276;-76
2023/06/02 03:35:14;;;;;;;8.70;3.85;;;14.10;99.90;;;;;;5014302;28;20229;-76
2023/06/02 03:37:44;;;;;;;17.35;4.35;;;14.10;99.90;;;;;;5013703;28;20265;-76
2023/06/02 03:40:12;;;;;;;5.32;3.70;;;14.10;99.90;;;;;;5014707;28;20218;-75
2023/06/02 03:42:39;;;;;;;13.32;3.70;;;14.10;99.90;;;;;;5013765;28;20236;-76
2023/06/02 03:45:07;;;;;;;7.47;3.22;;;14.10;99.90;;;;;;5014026;28;20226;-76
2023/06/02 03:47:34;;;;;;;12.48;3.60;;;14.10;99.90;;;;;;5012974;28;20276;-76
2023/06/02 03:50:01;;;;;;;10.57;4.00;;;14.10;99.90;;;;;;5014082;28;20619;-76
2023/06/02 03:52:30;;;;;;;5.28;4.10;;;14.10;99.90;;;;;;5013672;28;20571;-76
2023/06/02 03:54:59;;;;;;;11.05;3.65;;;14.10;99.90;;;;;;5013236;28;20746;-76
2023/06/02 03:57:25;;;;;;;11.82;4.53;;;14.20;99.90;;;;;;5014002;28;20273;-76
2023/06/02 03:59:52;;;;;;;11.85;4.45;;;14.20;99.90;;;;;;5013623;28;20549;-76
2023/06/02 04:02:19;;;;;;;14.65;5.00;;;14.20;99.90;;;;;;5012614;28;20680;-75
2023/06/02 04:04:46;;;;;;;12.68;4.40;;;14.20;99.90;;;;;;5013530;28;20612;-76
2023/06/02 04:07:13;;;;;;;10.77;3.92;;;14.20;99.90;;;;;;5013692;28;20222;-76
2023/06/02 04:09:40;;;;;;;11.23;4.57;;;14.20;99.90;;;;;;5013293;28;20226;-76
2023/06/02 04:12:10;;;;;;;17.23;4.93;;;14.30;99.90;;;;;;5013721;28;20222;-77
2023/06/02 04:14:38;;;;;;;9.35;4.63;;;14.30;99.90;;;;;;5013105;28;20295;-76
2023/06/02 04:17:07;;;;;;;14.45;4.70;;;14.30;99.90;;;;;;5013027;28;20250;-76
2023/06/02 04:19:34;;;;;;;9.88;4.60;;;14.30;99.90;;;;;;5011910;28;20241;-76
2023/06/02 04:22:01;;;;;;;12.38;4.68;;;14.30;99.90;;;;;;5012225;28;20246;-76
2023/06/02 04:24:28;;;;;;;11.45;4.13;;;14.40;99.90;;;;;;5013524;28;20229;-76
2023/06/02 04:26:55;;;;;;;9.77;4.70;;;14.40;99.90;;;;;;5012301;28;20230;-76
2023/06/02 04:29:24;;;;;;;6.22;3.53;;;14.40;99.90;;;;;;5013018;28;20855;-76
2023/06/02 04:31:51;;;;;;;7.90;4.60;;;14.40;99.90;;;;;;5012766;28;21769;-76
2023/06/02 04:34:18;;;;;;;13.70;4.50;;;14.40;99.90;;;;;;5000036;28;20457;-76
2023/06/02 04:36:45;;;;;;;9.73;4.43;;;14.50;99.90;;;;;;5012440;28;20511;-75
2023/06/02 04:39:24;;;;;;;8.82;4.00;;;14.50;99.90;;;;;;5012607;28;20245;-75
2023/06/02 04:41:52;;;;;;;10.55;4.15;;;14.50;99.90;;;;;;5010842;28;20310;-75
2023/06/02 04:44:19;;;;;;;10.80;4.30;;;14.50;99.90;;;;;;5012681;28;20260;-75
2023/06/02 04:46:47;;;;;;;8.50;4.30;;;14.50;99.90;;;;;;5012695;28;20229;-75
2023/06/02 04:49:14;;;;;;;12.32;5.45;;;14.50;99.90;;;;;;5012405;28;20461;-75
2023/06/02 04:51:41;;;;;;;11.18;4.80;;;14.50;99.90;;;;;;5013044;28;20237;-75
2023/06/02 04:54:09;;;;;;;7.57;3.10;;;14.60;99.90;;;;;;5012518;28;20222;-75
2023/06/02 04:56:36;;;;;;;12.88;4.43;;;14.60;99.90;;;;;;5012587;28;20233;-75
2023/06/02 04:59:03;;;;;;;9.55;5.38;;;14.60;99.90;;;;;;5012609;28;20292;-75
2023/06/02 05:01:30;;;;;;;13.02;4.90;;;14.60;99.90;;;;;;5012757;28;20229;-76
2023/06/02 05:03:59;;;;;;;15.85;6.72;;;14.60;99.90;;;;;;5012745;28;20234;-75
2023/06/02 05:06:26;;;;;;;14.80;5.65;;;14.70;99.90;;;;;;5012450;28;20229;-75
2023/06/02 05:08:53;;;;;;;14.32;4.53;;;14.70;99.90;;;;;;5012678;28;20226;-74
2023/06/02 05:11:20;;;;;;;12.00;4.27;;;14.70;99.90;;;;;;5012697;28;20245;-77
2023/06/02 05:13:47;;;;;;;14.45;5.65;;;14.80;99.90;;;;;;5002280;28;20496;-74
2023/06/02 05:16:14;;;;;;;19.33;5.97;;;14.80;99.90;;;;;;5011664;28;20229;-75
2023/06/02 05:18:41;;;;;;;12.30;5.70;;;14.80;99.90;;;;;;5012742;28;20237;-75
2023/06/02 05:21:09;;;;;;;14.48;7.65;;;14.80;99.90;;;;;;5012452;28;20484;-76
2023/06/02 05:23:39;;;;;;;23.77;7.60;;;14.80;99.90;;;;;;5012970;28;20222;-76
2023/06/02 05:26:06;;;;;;;16.90;8.50;;;14.90;99.90;;;;;;5012154;28;20587;-75
2023/06/02 05:28:33;;;;;;;17.88;8.80;;;14.90;99.90;;;;;;5013134;28;20813;-75
2023/06/02 05:31:00;;;;;;;16.10;6.53;;;14.90;99.90;;;;;;5012198;28;20225;-75
2023/06/02 05:33:27;;;;;;;12.33;5.50;;;15.00;99.90;;;;;;5013135;28;20477;-75
2023/06/02 05:35:54;;;;;;;9.20;5.38;;;15.00;99.90;;;;;;5016628;28;20492;-75
2023/06/02 05:38:22;;;;;;;16.17;5.80;;;15.00;99.90;;;;;;5016220;28;20284;-75
2023/06/02 05:40:49;;;;;;;13.63;5.57;;;15.10;99.90;;;;;;5016760;28;20469;-74
2023/06/02 05:43:16;;;;;;;17.37;5.10;;;15.20;99.90;;;;;;5015938;28;20504;-74
2023/06/02 05:45:43;;;;;;;10.83;4.87;;;15.20;99.90;;;;;;5016429;28;20476;-75
2023/06/02 05:48:10;;;;;;;19.35;5.53;;;15.30;99.90;;;;;;5015295;28;20560;-74
2023/06/02 05:50:37;;;;;;;13.63;5.10;;;15.30;99.90;;;;;;5016055;28;20567;-74
2023/06/02 05:53:04;;;;;;;8.13;3.77;;;15.30;99.90;;;;;;5005159;28;20469;-75
2023/06/02 05:55:33;;;;;;;10.63;3.90;;;15.40;99.80;;;;;;5015505;28;20880;-75
2023/06/02 05:58:00;;;;;;;11.27;4.37;;;15.40;99.90;;;;;;5016453;28;20523;-74
2023/06/02 06:00:27;;;;;;;12.80;4.73;;;15.40;99.90;;;;;;5015893;28;20480;-74
2023/06/02 06:02:56;;;;;;;11.17;5.77;;;15.40;99.90;;;;;;5015975;28;20985;-74
2023/06/02 06:05:23;;;;;;;10.73;4.17;;;15.40;99.90;;;;;;5015500;28;20496;-75
2023/06/02 06:07:50;;;;;;;10.82;6.78;;;15.50;99.90;;;;;;5016226;28;20488;-75
2023/06/02 06:10:17;;;;;;;14.03;5.77;;;15.40;99.90;;;;;;5015263;28;20277;-74
2023/06/02 06:12:45;;;;;;;8.60;4.60;;;15.40;99.90;;;;;;5015561;28;20515;-74
2023/06/02 06:15:12;;;;;;;18.40;5.70;;;15.40;99.90;;;;;;5014782;28;20503;-74
2023/06/02 06:17:49;;;;;;;12.27;4.90;;;15.40;99.90;;;;;;5015772;28;20504;-75
2023/06/02 06:20:16;;;;;;;10.67;4.73;;;15.40;99.90;;;;;;5015508;28;20527;-75
2023/06/02 06:22:44;;;;;;;15.03;5.50;;;15.40;99.90;;;;;;5015752;28;20534;-76
2023/06/02 06:25:11;;;;;;;10.50;5.40;;;15.40;99.90;;;;;;5015280;28;20954;-75
2023/06/02 06:27:38;;;;;;;12.20;4.20;;;15.40;99.90;;;;;;5015804;28;20580;-75
2023/06/02 06:30:18;;;;;;;17.87;5.30;;;15.40;99.90;;;;;;5015372;28;20582;-74
2023/06/02 06:32:45;;;;;;;11.00;4.57;;;15.40;99.90;;;;;;5016586;28;20535;-75
2023/06/02 06:35:13;;;;;;;9.93;4.77;;;15.50;99.90;;;;;;5016147;28;21366;-74
2023/06/02 06:37:40;;;;;;;14.43;5.13;;;15.50;99.90;;;;;;5017622;28;20535;-75
2023/06/02 06:40:11;;;;;;;10.50;5.70;;;15.50;99.90;;;;;;5019969;28;20564;-75
2023/06/02 06:42:38;;;;;;;14.33;5.00;;;15.50;99.90;;;;;;5020960;28;20936;-75
2023/06/02 06:45:09;;;;;;;12.40;6.87;;;15.50;99.90;;;;;;5018032;28;20507;-75
2023/06/02 06:47:36;;;;;;;11.37;5.00;;;15.60;99.90;;;;;;5017412;28;20469;-75
2023/06/02 06:50:03;;;;;;;16.33;5.87;;;15.60;99.90;;;;;;5015740;28;20473;-76
2023/06/02 06:52:30;;;;;;;12.53;4.90;;;15.70;99.90;;;;;;5016535;28;20473;-76
2023/06/02 06:54:56;;;;;;;8.30;5.90;;;15.80;99.90;;;;;;5017313;28;20796;-75
2023/06/02 06:57:23;;;;;;;21.50;6.90;;;15.90;99.90;;;;;;5025465;28;20534;-76
2023/06/02 06:59:50;;;;;;;16.90;6.83;;;16.00;99.90;;;;;;5016395;28;21029;-75
2023/06/02 07:02:19;;;;;;;13.10;5.80;;;16.10;99.90;;;;;;5015122;28;20927;-76
2023/06/02 07:04:46;;;;;;;15.13;6.70;;;16.20;99.90;;;;;;5015273;28;20474;-76
2023/06/02 07:07:16;;;;;;;14.17;6.10;;;16.30;99.90;;;;;;5014349;28;20505;-76
2023/06/02 07:09:43;;;;;;;13.50;6.33;;;16.40;99.90;;;;;;5015786;28;20596;-76
2023/06/02 07:12:10;;;;;;;10.33;5.80;;;16.50;99.90;;;;;;5004384;28;20504;-75
2023/06/02 07:14:37;;;;;;;8.80;4.83;;;16.60;99.90;;;;;;5013668;28;20499;-76
2023/06/02 07:17:04;;;;;;;10.80;7.07;;;16.70;99.90;;;;;;5015246;28;20976;-76
2023/06/02 07:19:32;;;;;;;11.47;5.80;;;16.70;99.90;;;;;;5015393;28;20473;-76
2023/06/02 07:21:59;;;;;;;11.90;6.50;;;16.70;99.90;;;;;;5014412;28;20554;-76
2023/06/02 07:24:26;;;;;;;12.23;5.77;;;16.80;99.90;;;;;;5014179;28;20527;-76
2023/06/02 07:26:54;;;;;;;13.13;6.30;;;16.80;99.90;;;;;;5014874;28;20691;-76
2023/06/02 07:29:21;;;;;;;12.77;6.77;;;16.80;99.90;;;;;;5013959;28;20475;-76
2023/06/02 07:31:48;;;;;;;9.40;5.63;;;16.90;99.90;;;;;;5014629;28;20492;-75
2023/06/02 07:34:16;;;;;;;17.10;7.00;;;16.90;99.90;;;;;;5013808;28;20869;-76
2023/06/02 07:36:46;;;;;;;12.67;5.80;;;16.90;99.90;;;;;;5014364;28;21025;-76
2023/06/02 07:39:13;;;;;;;14.77;6.93;;;16.90;99.90;;;;;;5013093;28;20489;-76
2023/06/02 07:41:40;;;;;;;12.40;6.20;;;16.90;99.90;;;;;;5014138;28;20476;-76
2023/06/02 07:44:07;;;;;;;13.23;6.57;;;16.90;99.90;;;;;;5013459;28;20492;-76
2023/06/02 07:46:33;;;;;;;15.60;6.03;;;16.80;99.90;;;;;;5013846;28;20503;-76
2023/06/02 07:49:01;;;;;;;7.90;5.20;;;16.80;99.90;;;;;;5013661;28;20880;-75
2023/06/02 07:51:28;;;;;;;14.10;6.80;;;16.80;99.90;;;;;;5013430;28;20758;-76
2023/06/02 07:53:56;;;;;;;11.67;5.70;;;16.90;99.90;;;;;;5013698;28;20466;-76
2023/06/02 07:56:23;;;;;;;7.97;5.97;;;17.00;99.90;;;;;;5012310;28;20820;-76
2023/06/02 07:58:50;;;;;;;6.90;5.17;;;17.00;99.90;;;;;;5013713;28;20469;-76
2023/06/02 08:01:17;;;;;;;9.30;5.27;;;17.10;99.90;;;;;;5013290;28;20469;-76
2023/06/02 08:03:44;;;;;;;6.20;4.40;;;17.10;99.90;;;;;;5014049;28;20947;-76
2023/06/02 08:06:11;;;;;;;13.93;5.63;;;17.10;99.90;;;;;;5013132;28;20481;-77
2023/06/02 08:08:38;;;;;;;10.80;4.67;;;17.10;99.90;;;;;;5013749;28;20643;-77
2023/06/02 08:11:06;;;;;;;8.87;4.90;;;17.10;99.90;;;;;;5013613;28;20477;-75
2023/06/02 08:13:33;;;;;;;11.80;5.90;;;17.20;99.90;;;;;;5012864;28;20579;-77
2023/06/02 08:16:00;;;;;;;5.57;4.23;;;17.10;99.90;;;;;;5013498;28;20872;-76
2023/06/02 08:18:27;;;;;;;11.83;4.37;;;17.10;99.90;;;;;;5013003;28;20464;-76
2023/06/02 08:20:54;;;;;;;9.03;4.60;;;17.20;99.90;;;;;;5013109;28;20484;-77
2023/06/02 08:23:21;;;;;;;6.33;4.50;;;17.20;99.90;;;;;;5013042;28;20473;-75
2023/06/02 08:25:48;;;;;;;8.00;4.40;;;17.20;99.90;;;;;;5013075;28;20500;-75
2023/06/02 08:28:17;;;;;;;8.67;4.37;;;17.20;99.90;;;;;;5012873;28;20539;-75
2023/06/02 08:30:46;;;;;;;7.93;4.43;;;17.30;99.90;;;;;;5013243;28;20465;-77
2023/06/02 08:33:40;;;;;;;9.87;4.00;;;17.30;99.90;;;;;;5009626;28;20469;-77
2023/06/02 08:36:08;;;;;;;8.07;3.70;;;17.40;99.90;;;;;;5013016;28;20983;-77
2023/06/02 08:38:37;;;;;;;6.90;3.80;;;17.40;99.90;;;;;;5012535;28;20489;-76
2023/06/02 08:51:15;;;;;;;6.37;3.50;;;17.80;99.40;;;;;;4911485;29;20489;-76
2023/06/02 08:54:15;;;;;;;4.00;3.00;;;17.80;98.80;;;;;;4906270;29;20483;-75
2023/06/02 08:57:05;;;;;;;5.70;2.80;;;18.00;97.80;;;;;;5150572;23;20488;-75
2023/06/02 08:59:32;;;;;;;3.40;2.90;;;18.20;95.70;;;;;;5051421;28;20558;-75
2023/06/02 09:02:01;;;;;;;8.30;3.40;;;18.40;95.00;;;;;;5052184;28;20818;-74
2023/06/02 09:04:28;;;;;;;8.10;3.13;;;18.60;94.50;;;;;;5050728;28;20551;-74
2023/06/02 09:07:19;;;;;;;4.33;2.90;;;18.70;93.70;;;;;;5051920;28;20808;-75
2023/06/02 09:09:49;;;;;;;5.37;2.70;;;18.80;92.60;;;;;;5042647;28;20467;-77
2023/06/02 09:12:17;;;;;;;2.90;2.70;;;18.90;89.50;;;;;;5052383;28;20471;-76
2023/06/02 09:14:45;;;;;;;4.10;2.47;;;19.20;88.80;;;;;;5051834;28;20475;-76
2023/06/02 09:17:25;;;;;;;3.33;2.37;;;19.30;87.90;;;;;;5052394;28;20459;-76
2023/06/02 09:19:56;;;;;;;4.60;3.67;;;19.40;87.70;;;;;;5051854;28;20455;-76
2023/06/02 09:22:24;;;;;;;3.17;2.40;;;19.40;85.80;;;;;;5051610;28;20467;-75
2023/06/02 09:24:54;;;;;;;5.60;2.70;;;19.50;84.00;;;;;;5051342;28;20980;-75
2023/06/02 09:27:26;;;;;;;2.87;2.07;;;19.60;83.30;;;;;;5041907;28;20988;-75
2023/06/02 09:30:01;;;;;;;4.40;1.87;;;19.60;79.70;;;;;;5051481;28;20916;-76
2023/06/02 09:32:28;;;;;;;5.77;2.13;;;19.70;76.70;;;;;;5052300;28;20462;-76
2023/06/02 09:35:01;;;;;;;2.20;1.77;;;19.80;74.10;;;;;;5041977;28;20543;-76
2023/06/02 09:37:35;;;;;;;3.27;2.07;;;19.90;72.10;;;;;;5051177;28;20482;-76
2023/06/02 09:40:07;;;;;;;2.77;1.83;;;19.90;70.30;;;;;;5052134;28;20472;-76
2023/06/02 09:42:43;;;;;;;2.60;1.83;;;20.00;70.10;;;;;;5052019;28;20483;-75
2023/06/02 09:45:12;;;;;;;4.80;1.77;;;20.00;70.00;;;;;;5051828;28;20467;-76
2023/06/02 09:47:41;;;;;;;2.50;1.87;;;20.00;68.10;;;;;;5052175;28;20467;-76
2023/06/02 09:50:08;;;;;;;2.00;1.63;;;20.00;67.10;;;;;;5051503;28;20463;-76
2023/06/02 09:52:36;;;;;;;2.37;2.17;;;20.10;65.50;;;;;;5051914;28;20542;-76
2023/06/02 09:55:05;;;;;;;2.67;1.50;;;20.10;65.40;;;;;;5051441;28;20475;-76
2023/06/02 09:57:32;;;;;;;2.20;1.80;;;20.20;64.10;;;;;;5051552;28;20601;-76
2023/06/02 10:00:00;;;;;;;2.57;2.10;;;20.20;63.90;;;;;;5041584;28;20483;-76
2023/06/02 10:02:28;;;;;;;2.83;1.90;;;20.30;64.60;;;;;;5052009;28;20467;-76
2023/06/02 10:04:54;;;;;;;2.77;1.60;;;20.20;61.70;;;;;;5051650;28;20561;-76
2023/06/02 10:07:35;;;;;;;1.53;1.20;;;20.20;61.50;;;;;;5051726;28;20465;-77
2023/06/02 10:10:19;;;;;;;3.50;1.77;;;20.20;61.70;;;;;;5051713;28;20521;-76
2023/06/02 10:13:02;;;;;;;7.93;1.80;;;20.30;61.90;;;;;;5051353;28;20467;-75
2023/06/02 10:15:43;;;;;;;2.77;1.93;;;20.30;61.70;;;;;;5051866;28;20495;-76
2023/06/02 10:18:41;;;;;;;2.77;1.50;;;20.30;60.70;;;;;;5051819;28;20459;-76
2023/06/02 10:21:17;;;;;;;2.10;1.70;;;20.30;61.10;;;;;;5053807;28;20520;-76
2023/06/02 10:23:52;;;;;;;2.17;1.50;;;20.40;60.10;;;;;;5055415;28;20481;-76
2023/06/02 10:26:49;;;;;;;3.40;1.80;;;20.50;60.10;;;;;;5055001;28;20462;-76
2023/06/02 10:29:19;;;;;;;3.63;1.70;;;20.50;59.80;;;;;;5054817;28;20458;-76
2023/06/02 10:31:48;;;;;;;6.80;2.50;;;20.40;59.70;;;;;;5055485;28;20466;-75
2023/06/02 10:34:37;;;;;;;3.70;1.63;;;20.40;60.40;;;;;;5054760;28;20475;-75
2023/06/02 10:37:16;;;;;;;2.33;1.60;;;20.40;61.10;;;;;;5054406;28;20471;-75
2023/06/02 10:39:48;;;;;;;2.20;1.50;;;20.50;61.90;;;;;;5055225;28;20529;-75
2023/06/02 10:42:18;;;;;;;5.20;2.73;;;20.50;61.90;;;;;;5054700;28;20512;-76
2023/06/02 10:44:47;;;;;;;3.67;1.60;;;20.50;62.50;;;;;;5055029;28;20459;-76
2023/06/02 10:47:36;;;;;;;3.10;1.57;;;20.50;61.40;;;;;;5054455;28;20463;-75
2023/06/02 10:50:09;;;;;;;2.70;1.93;;;20.40;61.10;;;;;;5054513;28;20455;-75
2023/06/02 10:53:09;;;;;;;1.80;1.47;;;20.40;61.90;;;;;;5054922;28;20470;-75
2023/06/02 10:55:36;;;;;;;1.63;1.50;;;20.60;62.90;;;;;;5055010;28;20803;-76
2023/06/02 10:58:06;;;;;;;2.50;1.87;;;20.60;62.80;;;;;;5054587;28;20451;-75
2023/06/02 11:00:50;;;;;;;4.20;2.03;;;20.70;63.20;;;;;;5054457;28;20475;-75
2023/06/02 11:03:34;;;;;;;3.47;1.80;;;20.70;62.80;;;;;;5054819;28;20470;-74
2023/06/02 11:06:18;;;;;;;2.30;1.60;;;20.80;63.00;;;;;;5054344;28;20467;-76
2023/06/02 11:08:44;;;;;;;2.33;1.67;;;20.70;63.10;;;;;;5054282;28;20481;-76
2023/06/02 11:11:11;;;;;;;5.37;2.60;;;20.80;61.90;;;;;;5054473;28;20752;-77
2023/06/02 11:13:58;;;;;;;2.50;1.93;;;20.70;61.00;;;;;;5052937;28;20467;-74
2023/06/02 11:16:28;;;;;;;3.13;1.80;;;20.80;61.40;;;;;;5053892;28;20463;-76
2023/06/02 11:18:55;;;;;;;2.00;1.50;;;20.80;61.80;;;;;;5054101;28;20463;-76
2023/06/02 11:21:23;;;;;;;2.20;2.00;;;20.90;61.80;;;;;;5054025;28;20463;-75
2023/06/02 11:23:50;;;;;;;2.37;1.70;;;20.90;62.20;;;;;;5053666;28;20471;-77
2023/06/02 11:26:19;;;;;;;4.27;1.80;;;21.00;62.50;;;;;;5053890;28;20471;-76
2023/06/02 11:28:47;;;;;;;2.50;1.53;;;21.00;62.00;;;;;;5053569;28;20451;-75
2023/06/02 11:31:16;;;;;;;2.23;1.50;;;21.10;61.50;;;;;;5052997;28;20475;-75
2023/06/02 11:33:47;;;;;;;4.33;1.53;;;21.10;60.40;;;;;;5053281;28;20463;-75
2023/06/02 11:36:16;;;;;;;6.60;1.73;;;21.10;59.90;;;;;;5053552;28;20500;-75
2023/06/02 11:38:44;;;;;;;2.13;1.40;;;21.10;59.20;;;;;;5053610;28;20524;-76
2023/06/02 11:41:11;;;;;;;2.03;1.67;;;21.20;58.50;;;;;;5054005;28;20998;-76
2023/06/02 11:43:42;;;;;;;5.23;1.70;;;21.20;58.30;;;;;;5053222;28;20525;-76
2023/06/02 11:46:10;;;;;;;2.47;1.40;;;21.20;58.30;;;;;;5053867;28;20467;-76
2023/06/02 11:48:40;;;;;;;2.57;1.57;;;21.20;57.70;;;;;;5053336;28;20495;-75
2023/06/02 11:51:08;;;;;;;2.80;1.47;;;21.20;57.70;;;;;;5053574;28;20968;-76
2023/06/02 11:53:35;;;;;;;7.53;1.60;;;21.20;57.70;;;;;;5042796;28;20476;-76
2023/06/02 11:56:02;;;;;;;3.90;1.50;;;21.20;57.10;;;;;;5057237;28;20972;-76
2023/06/02 11:58:30;;;;;;;10.30;2.33;;;21.20;55.80;;;;;;5073678;28;20470;-76
2023/06/02 12:01:07;;;;;;;3.63;1.70;;;21.20;55.70;;;;;;5073026;28;20458;-75
2023/06/02 12:03:35;;;;;;;2.00;1.77;;;21.20;54.60;;;;;;5073681;28;20468;-75
2023/06/02 12:06:13;;;;;;;6.77;2.10;;;21.10;54.00;;;;;;5073124;28;20470;-74
2023/06/02 12:08:41;;;;;;;2.90;1.50;;;21.10;52.80;;;;;;5072851;28;20462;-74
2023/06/02 12:11:15;;;;;;;2.77;1.60;;;21.00;52.30;;;;;;5073721;28;20787;-76
2023/06/02 12:13:42;;;;;;;1.40;1.10;;;21.00;52.20;;;;;;5073075;28;21022;-75
2023/06/02 12:16:20;;;;;;;1.87;1.70;;;21.10;52.50;;;;;;5073427;28;20473;-75
2023/06/02 12:18:47;;;;;;;1.97;1.10;;;21.10;51.20;;;;;;5071673;28;20470;-76
2023/06/02 12:21:42;;;;;;;1.80;1.27;;;21.10;49.60;;;;;;5062253;28;20482;-75
2023/06/02 12:24:09;;;;;;;1.73;1.27;;;21.10;49.60;;;;;;5072077;28;20454;-74
2023/06/02 12:29:29;;;;;;;4.23;1.43;;;21.10;47.80;;;;;;5059368;28;20545;-74
2023/06/02 12:31:59;;;;;;;6.47;1.33;;;21.10;47.90;;;;;;5073142;28;20547;-75
2023/06/02 12:34:29;;;;;;;1.53;1.17;;;21.10;46.90;;;;;;5072697;28;20470;-75
2023/06/02 12:37:02;;;;;;;3.23;1.50;;;21.10;46.80;;;;;;5072415;28;20462;-75
2023/06/02 12:39:30;;;;;;;5.73;1.33;;;21.10;45.70;;;;;;5072841;28;20492;-76
2023/06/02 12:41:57;;;;;;;2.60;1.70;;;21.10;45.40;;;;;;5072609;28;20465;-76
2023/06/02 12:44:26;;;;;;;2.90;1.20;;;21.10;45.60;;;;;;5072571;28;20543;-75
2023/06/02 12:46:53;;;;;;;5.10;1.10;;;21.10;45.20;;;;;;5071462;28;20561;-76
2023/06/02 12:49:20;;;;;;;4.37;1.40;;;21.20;44.90;;;;;;5072794;28;20519;-74
2023/06/02 12:51:47;;;;;;;1.53;1.10;;;21.10;44.40;;;;;;5072425;28;20967;-77
2023/06/02 12:54:16;;;;;;;1.47;1.37;;;21.20;43.90;;;;;;5072881;28;20515;-75
2023/06/02 12:56:43;;;;;;;1.50;1.03;;;21.20;43.60;;;;;;5071541;28;20471;-76
2023/06/02 12:59:11;;;;;;;1.77;1.23;;;21.10;43.30;;;;;;5072295;28;20462;-74
2023/06/02 13:01:38;;;;;;;2.97;1.23;;;21.10;43.70;;;;;;5071829;28;20486;-75
2023/06/02 13:04:05;;;;;;;1.20;1.10;;;21.10;43.60;;;;;;5072504;28;20462;-77
2023/06/02 13:06:34;;;;;;;1.60;1.23;;;21.10;43.60;;;;;;5072585;28;20502;-76
2023/06/02 13:09:02;;;;;;;1.20;1.10;;;21.10;43.60;;;;;;5071720;28;20462;-77